createdAt,value
2023-03-10T00:02:49.745Z,80.92
2023-03-10T00:07:52.765Z,80.65
2023-03-10T00:12:55.591Z,80.40
2023-03-10T00:17:58.409Z,79.71
2023-03-10T00:23:01.105Z,81.04
2023-03-10T00:28:03.842Z,80.53
2023-03-10T00:33:06.635Z,80.37
2023-03-10T00:38:09.368Z,80.84
2023-03-10T00:43:12.114Z,80.61
2023-03-10T00:48:14.814Z,80.40
2023-03-10T00:53:17.690Z,80.39
2023-03-10T00:58:20.233Z,79.97
2023-03-10T01:03:24.275Z,80.37
2023-03-10T01:08:27.397Z,80.38
2023-03-10T01:13:30.284Z,80.09
2023-03-10T01:18:33.157Z,80.90
2023-03-10T01:23:36.131Z,80.54
2023-03-10T01:28:38.975Z,80.55
2023-03-10T01:33:43.071Z,80.88
2023-03-10T01:38:48.590Z,80.80
2023-03-10T01:43:54.409Z,80.96
2023-03-10T01:49:02.252Z,80.05
2023-03-10T01:54:09.650Z,79.89
2023-03-10T01:59:14.998Z,80.78
2023-03-10T02:04:27.311Z,79.77
2023-03-10T02:09:31.294Z,80.82
2023-03-10T02:14:36.102Z,79.86
2023-03-10T02:25:22.597Z,81.11
2023-03-10T02:35:37.365Z,80.18
2023-03-10T02:40:52.637Z,80.10
2023-03-10T02:46:03.275Z,80.18
2023-03-10T02:51:11.662Z,80.37
2023-03-10T02:56:16.595Z,80.00
2023-03-10T03:01:21.542Z,80.21
2023-03-10T03:06:24.391Z,79.81
2023-03-10T03:11:27.799Z,79.08
2023-03-10T03:16:30.761Z,79.93
2023-03-10T03:21:37.896Z,79.80
2023-03-10T03:26:40.822Z,80.28
2023-03-10T03:31:49.059Z,79.36
2023-03-10T03:36:55.559Z,79.38
2023-03-10T03:42:04.290Z,79.93
2023-03-10T03:47:14.704Z,80.01
2023-03-10T03:52:17.848Z,80.03
2023-03-10T03:57:21.658Z,79.83
2023-03-10T04:02:24.641Z,79.11
2023-03-10T04:07:28.408Z,79.68
2023-03-10T04:12:31.187Z,79.31
2023-03-10T04:17:34.877Z,79.40
2023-03-10T04:22:38.029Z,79.29
2023-03-10T04:27:42.152Z,79.25
2023-03-10T04:32:49.137Z,78.90
2023-03-10T04:37:54.106Z,78.38
2023-03-10T04:42:59.048Z,79.17
2023-03-10T04:48:02.838Z,78.14
2023-03-10T04:53:07.202Z,77.83
2023-03-10T04:58:10.094Z,77.76
2023-03-10T05:03:13.406Z,77.43
2023-03-10T05:08:16.264Z,77.27
2023-03-10T05:13:19.088Z,76.85
2023-03-10T05:18:21.981Z,76.71
2023-03-10T05:23:27.185Z,76.89
2023-03-10T05:28:30.766Z,77.13
2023-03-10T05:33:37.841Z,76.96
2023-03-10T05:38:40.802Z,76.85
2023-03-10T05:43:48.041Z,76.51
2023-03-10T05:48:53.165Z,76.53
2023-03-10T05:53:56.734Z,76.00
2023-03-10T05:59:03.829Z,76.41
2023-03-10T06:04:10.096Z,75.94
2023-03-10T06:09:12.975Z,75.55
2023-03-10T06:14:15.927Z,76.25
2023-03-10T06:19:19.667Z,76.11
2023-03-10T06:24:22.476Z,75.56
2023-03-10T06:29:25.371Z,75.21
2023-03-10T06:37:13.960Z,74.96
2023-03-10T06:42:16.741Z,74.60
2023-03-10T06:47:19.440Z,73.44
2023-03-10T06:52:23.010Z,73.32
2023-03-10T06:57:25.795Z,72.60
2023-03-10T07:02:28.664Z,71.98
2023-03-10T07:07:31.496Z,71.74
2023-03-10T07:12:34.258Z,70.39
2023-03-10T07:17:37.016Z,71.08
2023-03-10T07:22:40.794Z,70.12
2023-03-10T07:27:43.644Z,69.47
2023-03-10T07:32:46.600Z,69.13
2023-03-10T07:37:49.624Z,67.79
2023-03-10T07:42:54.986Z,67.09
2023-03-10T07:47:58.561Z,66.93
2023-03-10T07:53:01.765Z,65.85
2023-03-10T07:58:04.694Z,66.09
2023-03-10T08:03:07.556Z,65.35
2023-03-10T08:08:11.437Z,65.32
2023-03-10T08:13:15.024Z,65.02
2023-03-10T08:18:17.801Z,64.73
2023-03-10T08:23:20.599Z,64.57
2023-03-10T08:28:23.333Z,64.13
2023-03-10T08:33:28.788Z,63.85
2023-03-10T08:38:31.645Z,64.21
2023-03-10T08:43:34.629Z,64.17
2023-03-10T08:48:37.775Z,64.42
2023-03-10T08:53:40.966Z,63.75
2023-03-10T08:58:44.597Z,63.41
2023-03-10T09:03:47.346Z,62.87
2023-03-10T09:08:50.848Z,62.14
2023-03-10T09:13:53.882Z,61.48
2023-03-10T09:18:59.255Z,60.71
2023-03-10T09:24:03.040Z,60.42
2023-03-10T09:29:06.042Z,60.19
2023-03-10T09:34:11.745Z,59.68
2023-03-10T09:39:14.416Z,60.46
2023-03-10T09:54:59.241Z,58.43
2023-03-10T10:00:08.804Z,57.84
2023-03-10T10:10:42.706Z,57.26
2023-03-10T10:16:07.293Z,56.94
2023-03-10T10:21:33.520Z,55.75
2023-03-10T10:26:43.278Z,55.26
2023-03-10T10:32:06.132Z,56.06
2023-03-10T10:42:36.140Z,55.17
2023-03-10T10:47:55.915Z,55.99
2023-03-10T11:24:58.740Z,54.32
2023-03-10T11:35:29.575Z,54.92
2023-03-10T11:40:44.925Z,55.20
2023-03-10T11:45:53.045Z,55.38
2023-03-10T11:54:34.270Z,55.61
2023-03-10T11:59:47.637Z,54.84
2023-03-10T12:15:30.571Z,45.12
2023-03-10T12:20:34.310Z,43.89
2023-03-10T12:41:45.567Z,45.24
2023-03-10T12:47:15.994Z,47.40
2023-03-10T12:52:27.265Z,48.50
2023-03-10T13:08:25.621Z,50.91
2023-03-10T13:13:31.888Z,51.82
2023-03-10T13:18:35.824Z,52.73
2023-03-10T13:23:38.701Z,52.59
2023-03-10T13:28:51.909Z,53.34
2023-03-10T13:33:56.420Z,54.02
2023-03-10T13:39:04.125Z,54.88
2023-03-10T13:44:16.308Z,55.43
2023-03-10T13:49:22.531Z,55.53
2023-03-10T13:54:30.029Z,55.62
2023-03-10T13:59:34.710Z,55.96
2023-03-10T14:04:42.915Z,56.25
2023-03-10T14:09:47.887Z,56.50
2023-03-10T14:14:52.066Z,57.55
2023-03-10T14:19:54.949Z,57.43
2023-03-10T14:24:59.768Z,57.93
2023-03-10T14:30:11.120Z,57.94
2023-03-10T14:35:16.490Z,58.47
2023-03-10T14:40:21.729Z,59.03
2023-03-10T14:45:35.174Z,59.80
2023-03-10T14:50:38.009Z,59.95
2023-03-10T14:55:43.105Z,60.05
2023-03-10T15:00:46.555Z,60.75
2023-03-10T15:05:50.547Z,60.88
2023-03-10T15:10:53.431Z,61.22
2023-03-10T15:15:56.451Z,61.60
2023-03-10T15:21:00.601Z,62.25
2023-03-10T15:26:09.856Z,62.51
2023-03-10T15:31:12.611Z,62.90
2023-03-10T15:36:15.679Z,63.22
2023-03-10T15:41:18.781Z,63.06
2023-03-10T15:46:21.716Z,63.70
2023-03-10T15:51:24.581Z,64.00
2023-03-10T15:56:27.394Z,64.18
2023-03-10T16:01:30.826Z,63.83
2023-03-10T16:06:34.273Z,64.68
2023-03-10T16:11:37.221Z,64.62
2023-03-10T16:16:40.373Z,65.20
2023-03-10T16:21:45.359Z,64.79
2023-03-10T16:26:49.082Z,65.25
2023-03-10T16:31:52.077Z,65.97
2023-03-10T16:36:55.852Z,65.71
2023-03-10T16:41:59.297Z,65.59
2023-03-10T16:47:03.382Z,66.92
2023-03-10T16:52:10.785Z,67.23
2023-03-10T16:57:16.190Z,67.92
2023-03-10T17:02:18.986Z,67.71
2023-03-10T17:07:21.820Z,68.10
2023-03-10T17:12:24.664Z,67.48
2023-03-10T17:17:30.099Z,67.34
2023-03-10T17:22:33.517Z,67.65
2023-03-10T17:27:36.362Z,67.79
2023-03-10T18:03:32.685Z,68.57
2023-03-10T18:08:35.709Z,68.48
2023-03-10T18:13:40.569Z,68.99
2023-03-10T18:18:43.659Z,69.43
2023-03-10T18:23:49.710Z,69.07
2023-03-10T18:28:52.511Z,70.04
2023-03-10T18:33:55.801Z,70.79
2023-03-10T18:38:59.762Z,70.55
2023-03-10T18:44:02.917Z,70.12
2023-03-10T18:49:05.852Z,70.78
2023-03-10T18:54:10.255Z,70.41
2023-03-10T18:59:14.002Z,70.22
2023-03-10T19:04:17.039Z,70.82
2023-03-10T19:09:20.483Z,70.76
2023-03-10T19:14:24.112Z,70.76
2023-03-10T19:19:28.597Z,70.33
2023-03-10T19:24:31.122Z,71.39
2023-03-10T19:29:33.859Z,71.12
2023-03-10T19:34:36.677Z,71.12
2023-03-10T19:39:39.415Z,71.15
2023-03-10T19:44:43.183Z,70.11
2023-03-10T19:49:46.101Z,71.12
2023-03-10T19:54:48.923Z,70.60
2023-03-10T19:59:52.152Z,70.86
2023-03-10T20:04:55.240Z,71.44
2023-03-10T20:09:57.954Z,71.71
2023-03-10T20:15:01.425Z,71.43
2023-03-10T20:20:10.855Z,71.63
2023-03-10T20:25:17.570Z,71.39
2023-03-10T20:30:23.836Z,72.09
2023-03-10T20:35:28.650Z,71.98
2023-03-10T20:40:31.322Z,71.74
2023-03-10T20:45:34.928Z,71.84
2023-03-10T20:50:37.527Z,71.72
2023-03-10T20:55:41.706Z,71.81
2023-03-10T21:00:47.791Z,72.51
2023-03-10T21:05:50.645Z,72.01
2023-03-10T21:10:53.242Z,71.83
2023-03-10T21:15:55.875Z,72.79
2023-03-10T21:20:58.725Z,72.92
2023-03-10T21:26:01.326Z,72.41
2023-03-10T21:31:04.671Z,73.30
2023-03-10T21:36:08.746Z,73.32
2023-03-10T21:41:15.188Z,73.84
2023-03-10T21:46:17.941Z,74.07
2023-03-10T21:51:23.710Z,74.06
2023-03-10T21:56:28.869Z,74.11
2023-03-10T22:01:31.656Z,74.21
2023-03-10T22:06:34.527Z,74.55
2023-03-10T22:11:37.733Z,74.99
2023-03-10T22:16:40.413Z,75.19
2023-03-10T22:21:42.996Z,75.67
2023-03-10T22:26:45.536Z,76.09
2023-03-10T22:31:50.549Z,76.25
2023-03-10T22:36:53.177Z,76.61
2023-03-10T22:41:55.860Z,77.40
2023-03-10T22:46:58.582Z,77.48
2023-03-10T22:52:02.737Z,77.31
2023-03-10T22:57:05.626Z,77.54
2023-03-10T23:02:08.368Z,77.97
2023-03-10T23:07:11.394Z,77.84
2023-03-10T23:12:13.951Z,78.46
2023-03-10T23:17:16.539Z,77.90
2023-03-10T23:22:19.130Z,78.41
2023-03-10T23:27:21.687Z,78.03
2023-03-10T23:32:24.269Z,78.35
2023-03-10T23:37:26.855Z,77.78
2023-03-10T23:42:29.421Z,77.70
2023-03-10T23:47:34.690Z,77.15
2023-03-10T23:52:37.301Z,76.44
2023-03-10T23:57:39.828Z,76.55
